Aviation Digital Data Service (ADDS)

Output produced by METARs form (1915 UTC 24 May 2015)
found at http://aviationweather.gov/adds/metars/
 
KDAG 241850Z AUTO VRB05KT 10SM CLR 24/06 A2992 RMK AO2 SLP112 T02440056
KDAG 241724Z 2418/2518 28011KT P6SM SKC 
     FM242000 32007KT P6SM FEW100 
     FM250200 25014G24KT P6SM SKC 
     FM251200 27010KT P6SM SKC
       
KEDW 241858Z VRB04KT 60SM FEW070 24/05 A2993 RMK AO2A SLP120 T02370047
KVCV 241855Z AUTO 01007KT 350V070 10SM CLR 23/05 A2998 RMK AO2
KONT 241853Z 24007KT 210V280 10SM FEW024 SCT030 BKN037 19/11 A3001 RMK AO2 SLP157 T01890106 $
KONT 241730Z 2418/2524 28009KT P6SM FEW020 BKN035 
     FM242100 26010KT P6SM FEW025 SCT045 
     FM250400 26006KT P6SM BKN035 
     FM251000 26005KT P6SM BKN020 OVC030 
     FM251700 26006KT P6SM BKN035 
     FM252100 26010KT P6SM FEW035
       
KNID 241856Z AUTO 17008KT 10SM CLR 26/04 A2991 RMK AO2 SLP115 T02560044 $
KSNA 241853Z 26003KT 10SM FEW022 BKN030 BKN040 18/10 A3002 RMK AO2 SLP166 T01830100
KSNA 241730Z 2418/2518 21004KT P6SM BKN025 OVC035 
     FM241900 21010KT P6SM FEW025 BKN035 
     FM250200 20006KT P6SM SCT025 BKN035 
     FM250500 VRB05KT P6SM BKN025 OVC035
       
KSAN 241851Z 20007KT 10SM BKN038 BKN220 19/09 A3004 RMK AO2 SLP173 T01890089
KSAN 241730Z 2418/2524 26005KT P6SM SCT030 BKN045 
     FM242000 26009KT P6SM SCT035 BKN050 
     FM250200 VRB05KT P6SM BKN025 OVC035 
     FM251700 VRB03KT P6SM SCT025 BKN035 
     FM252000 27009KT P6SM FEW025 BKN040
       
KNXP 241856Z 02008G16KT 10SM CLR 24/07 A2999 RMK AO2 SLP124 T02440067
TAF KNXP 2415/2515 32008KT 9999 FEW100 QNH2987INS 
     TEMPO 2415/2421 30015G23KT 
     BECMG 2501/2503 26009KT 9999 SCT150 QNH2988INS T28/2422Z T14/2512Z
       
KPSP 241853Z 34014G21KT 10SM SCT080 27/08 A2989 RMK AO2 SLP120 T02670083
KPSP 241730Z 2418/2518 34012G19KT P6SM FEW080 
     FM242300 34014G24KT P6SM FEW080 
     FM250400 31012KT P6SM SKC 
     FM250900 31006KT P6SM SKC
       
KLAX 241853Z 26012KT 10SM FEW017 SCT038 18/11 A3003 RMK AO2 SLP168 T01830106
KLAX 241736Z 2418/2524 27006KT P6SM FEW020 BKN035 
     FM242100 26014KT P6SM SCT040 
     FM250500 26006KT P6SM BKN025 
     FM250900 VRB03KT P6SM OVC020 
     FM251700 25006KT P6SM BKN025 
     FM252100 25010KT P6SM BKN035
       
KCNO 241853Z 30009KT 10SM SCT040 BKN055 21/11 A3002 RMK AO2 SLP163 T02060111 $
KSMO 241851Z 24008KT 210V280 10SM FEW029 19/11 A3003 RMK AO2 SLP168 T01890106 $
KLGB 241853Z 18006KT 10SM BKN041 20/11 A3002 RMK AO2 SLP166 T02000106 $
KLGB 241736Z 2418/2518 30006KT P6SM BKN035 
     FM242100 25010KT P6SM BKN040 
     FM250200 29008KT P6SM SCT040 
     FM250600 29004KT P6SM BKN035 
     FM251000 VRB03KT P6SM OVC025 
     FM251500 18004KT P6SM OVC030
       
KVNY 241851Z VRB03KT 10SM BKN033 21/10 A3000 RMK AO2 SLP154 T02060100
KVNY 241736Z 2418/2518 VRB03KT P6SM OVC023 
     FM242000 19008KT P6SM BKN035 
     FM250500 VRB03KT P6SM OVC025 
     FM251200 VRB03KT P6SM OVC015
       
KBUR 241853Z 13004KT 10SM BKN033 19/10 A3001 RMK AO2 SLP154 T01890100
KBUR 241901Z 2419/2518 VRB05KT P6SM BKN035 
     FM242200 18009KT P6SM SCT035 
     FM250400 18005KT P6SM SCT250 
     FM250600 VRB03KT P6SM OVC025 
     FM251200 VRB03KT P6SM OVC015
       
KBFL 241854Z 34005KT 10SM CLR 23/11 A2998 RMK AO2 SLP149 T02280111
KBFL 241720Z 2418/2518 32006KT P6SM SKC 
     FM242100 33009G15KT P6SM SKC 
     FM250300 34005KT P6SM SKC
       
KPMD 241853Z AUTO 29005KT 10SM CLR 23/06 A2997 RMK AO2 SLP129 T02330056
KPMD 241736Z 2418/2518 VRB05KT P6SM BKN150 
     FM242000 25010KT P6SM BKN150 
     FM242200 25017G25KT P6SM SCT050 
     FM250300 25012KT P6SM SCT100 
     FM251000 22008KT P6SM SCT100
       
KOXR 241851Z 26009KT 10SM CLR 19/11 A3002 RMK AO2 SLP165 T01940106
KOXR 241743Z 2418/2518 26006KT P6SM FEW021 
     FM242100 26012KT P6SM FEW025 
     FM250300 26006KT P6SM SKC 
     FM250800 VRB03KT P6SM OVC015 
     FM251200 30004KT P6SM BKN015 OVC025
       
KWJF 241856Z AUTO VRB03KT 10SM CLR 24/05 A2996 RMK AO2 SLP133 T02440050 TSNO
KWJF 241736Z 2418/2518 VRB05KT P6SM SCT100 
     FM242100 25017G25KT P6SM SCT050 
     FM250000 25020G30KT P6SM SCT050 
     FM250600 25013KT P6SM SCT100 
     FM251200 25008KT P6SM SCT100
       
KCMA 241855Z 24006KT 10SM CLR 21/11 A3001 RMK AO2 SLP171 T02060106
KFAT 241853Z 30005KT 10SM FEW050 23/11 A2999 RMK AO2 SLP152 T02330106
KFAT 241720Z 2418/2518 VRB06KT P6SM SKC
       
KEED 241856Z AUTO VRB05KT 10SM CLR 28/04 A2986 RMK AO2 SLP082 T02830044
KEED 241724Z 2418/2518 23006KT P6SM SKC 
     FM242000 21008KT P6SM FEW100 
     FM250300 24007KT P6SM FEW100 
     FM250600 23007KT P6SM SKC
       
KLSV 241858Z AUTO 24008KT 10SM FEW150 24/09 A2988 RMK AO2 SLP100 T02440091 $
KLAS 241856Z 20007KT 10SM FEW080 SCT120 SCT250 24/08 A2986 RMK AO2 SLP090 CB DSNT N SH DSNT N T02390083 $
KLAS 241724Z 2418/2518 VRB05KT P6SM BKN100 
     FM242000 05006KT P6SM SCT100 
     FM250200 21007KT P6SM SCT080 BKN100 
     FM250800 21006KT P6SM FEW080 SCT100
       
KHII 241855Z AUTO 17009G15KT 140V200 10SM CLR 27/06 A2986 RMK AO2
KIFP 241855Z AUTO 22006KT 10SM CLR 28/07 A2986 RMK AO2
KIFP 241724Z 2418/2518 25007KT P6SM FEW100 
     FM242000 18010G18KT P6SM SCT100 
     FM250200 17008KT P6SM FEW100